RIPO2: Cimarron River Near Ripley, OK

                                SHEF ID:       RIPO2     Cimarron River near Ripley, OK
STATION TYPE:
Regulating: Stage = 20.00, Flow = 33370

PRECIP ELEVATION STAGE RIV-FLOW AIR-TEMP WIND-DIRWIND-SPEED REL-HUMID VOLTAGE BAT-LOAD
in ft ft cfs F deg mph % volt volt
Ccp-Rev Ccp-Rev Ccp-Rev Ccp-Rev Ccp-Rev Ccp-Rev Ccp-Rev Ccp-Rev Ccp-Rev Ccp-Rev
(America/Chicago)
03/23 00:00 0.00 ---- 7.29 357 136.40 ---- ---- ---- ---- 12.69
03/23 01:00 0.00 ---- 7.29 357 132.98 ---- ---- ---- ---- 12.63
03/23 02:00 0.00 ---- 7.26 345 130.10 ---- ---- ---- ---- 12.60
03/23 03:00 0.00 ---- 7.27 349 127.22 ---- ---- ---- ---- 12.59
03/23 04:00 0.00 ---- 7.28 353 123.80 ---- ---- ---- ---- 12.57
03/23 05:00 0.00 ---- 7.30 361 120.20 ---- ---- ---- ---- 12.57
03/23 06:00 0.00 ---- 7.30 361 116.78 ---- ---- ---- ---- 12.54
03/23 07:00 0.00 ---- 7.30 361 113.36 ---- ---- ---- ---- 12.53
03/23 08:00 0.00 ---- 7.29 357 111.56 ---- ---- ---- ---- 12.51
03/23 09:00 0.00 ---- 7.28 353 113.90 ---- ---- ---- ---- 12.54
03/23 10:00 0.00 ---- 7.31 365 118.94 ---- ---- ---- ---- 13.38
03/23 11:00 0.00 ---- 7.30 361 124.52 ---- ---- ---- ---- 13.68
03/23 12:00 0.00 ---- 7.26 345 131.54 ---- ---- ---- ---- 13.64
03/23 13:00 0.00 ---- 7.28 353 138.02 ---- ---- ---- ---- 13.57
03/23 14:00 0.00 ---- 7.30 361 143.96 ---- ---- ---- ---- 13.53
03/23 15:00 0.00 ---- 7.28 353 148.46 ---- ---- ---- ---- 13.52
03/23 16:00 0.00 ---- 7.25 342 151.52 ---- ---- ---- ---- 13.52
03/23 17:00 0.00 ---- 7.29 357 151.52 ---- ---- ---- ---- 13.49
03/23 18:00 0.00 ---- 7.27 349 151.52 ---- ---- ---- ---- 13.47
03/23 19:00 0.00 ---- 7.31 365 148.82 ---- ---- ---- ---- 13.44
03/23 20:00 0.00 ---- 7.31 365 143.42 ---- ---- ---- ---- 13.42
03/23 21:00 0.00 ---- 7.31 365 140.90 ---- ---- ---- ---- 13.16
03/23 22:00 0.00 ---- 7.30 361 139.64 ---- ---- ---- ---- 12.99
03/23 23:00 0.00 ---- 7.29 357 139.28 ---- ---- ---- ---- 12.84
Data processed at Tue 24Mar2026 04:02 GMT

NOTICE: If you are parsing this page

Please convert to using our Data API. Starting early 2026 we will be migrating to: https://water.usace.army.mil with modern pages rendered in JavaScript. When this migration completes you will no longer be able to scrape this page! CWMSDataAPI (CDA)

Timeseries IDs (TSIDs)

TSIDs used from left to right in the data table
RIPL.Precip-Inc.Total.1Hour.1Hour.Ccp-Rev
RIPL.Stage.Inst.1Hour.0.Ccp-Rev
RIPL.Flow.Inst.1Hour.0.Ccp-Rev
RIPL.Temp-Air.Inst.1Hour.0.Ccp-Rev
RIPL.Dir-Wind.Inst.1Hour.0.Ccp-Rev
RIPL.Speed-Wind.Inst.1Hour.0.Ccp-Rev
RIPL.%-Humidity.Inst.1Hour.0.Ccp-Rev
RIPL.Volt-Battery.Inst.1Hour.0.Ccp-Rev
RIPL.Volt-Battery Load.Inst.1Hour.0.Ccp-Rev

                            

All information presented herein is the property of the government of the United States of America and may be revised or deleted at any time without prior notice. Dissemination of this information without the expressed written consent of the Public Affairs Office, Tulsa District U.S. Army Corps of Engineers is strictly prohibited. These data are gathered electronically and, as presented, have NOT undergone any form of quality control. These data are NOT guaranteed to be valid or correct.